sensor_id;sensor_type;location;lat;lon;timestamp;P1;durP1;ratioP1;P2;durP2;ratioP2
12312;SDS011;6220;53.580;9.758;2023-06-14T00:01:40;4.37;;;2.30;;
12312;SDS011;6220;53.580;9.758;2023-06-14T00:04:05;6.13;;;3.00;;
12312;SDS011;6220;53.580;9.758;2023-06-14T00:06:33;3.90;;;2.53;;
12312;SDS011;6220;53.580;9.758;2023-06-14T00:08:59;3.33;;;2.60;;
12312;SDS011;6220;53.580;9.758;2023-06-14T00:11:24;4.00;;;2.90;;
12312;SDS011;6220;53.580;9.758;2023-06-14T00:13:51;4.00;;;2.70;;
12312;SDS011;6220;53.580;9.758;2023-06-14T00:16:17;8.10;;;2.70;;
12312;SDS011;6220;53.580;9.758;2023-06-14T00:18:42;8.00;;;2.80;;
12312;SDS011;6220;53.580;9.758;2023-06-14T00:21:08;6.27;;;3.20;;
12312;SDS011;6220;53.580;9.758;2023-06-14T00:23:35;6.27;;;2.70;;
12312;SDS011;6220;53.580;9.758;2023-06-14T00:26:00;4.77;;;2.53;;
12312;SDS011;6220;53.580;9.758;2023-06-14T00:28:25;5.13;;;2.60;;
12312;SDS011;6220;53.580;9.758;2023-06-14T00:30:51;7.80;;;3.13;;
12312;SDS011;6220;53.580;9.758;2023-06-14T00:33:16;4.80;;;2.80;;
12312;SDS011;6220;53.580;9.758;2023-06-14T00:35:42;6.33;;;2.73;;
12312;SDS011;6220;53.580;9.758;2023-06-14T00:38:07;4.23;;;2.90;;
12312;SDS011;6220;53.580;9.758;2023-06-14T00:40:32;3.67;;;2.80;;
12312;SDS011;6220;53.580;9.758;2023-06-14T00:42:59;4.57;;;2.90;;
12312;SDS011;6220;53.580;9.758;2023-06-14T00:45:25;5.20;;;2.73;;
12312;SDS011;6220;53.580;9.758;2023-06-14T00:47:50;6.90;;;3.03;;
12312;SDS011;6220;53.580;9.758;2023-06-14T00:50:20;5.33;;;3.00;;
12312;SDS011;6220;53.580;9.758;2023-06-14T00:52:45;6.73;;;3.20;;
12312;SDS011;6220;53.580;9.758;2023-06-14T00:55:10;4.13;;;2.93;;
12312;SDS011;6220;53.580;9.758;2023-06-14T00:57:36;6.23;;;2.83;;
12312;SDS011;6220;53.580;9.758;2023-06-14T01:00:03;5.27;;;2.57;;
12312;SDS011;6220;53.580;9.758;2023-06-14T01:02:29;4.27;;;2.80;;
12312;SDS011;6220;53.580;9.758;2023-06-14T01:04:55;4.83;;;2.70;;
12312;SDS011;6220;53.580;9.758;2023-06-14T01:12:51;5.67;;;2.60;;
12312;SDS011;6220;53.580;9.758;2023-06-14T01:15:23;6.13;;;3.07;;
12312;SDS011;6220;53.580;9.758;2023-06-14T01:17:49;5.57;;;3.07;;
12312;SDS011;6220;53.580;9.758;2023-06-14T01:20:16;7.03;;;2.90;;
12312;SDS011;6220;53.580;9.758;2023-06-14T01:22:49;4.73;;;3.00;;
12312;SDS011;6220;53.580;9.758;2023-06-14T01:25:16;6.07;;;3.33;;
12312;SDS011;6220;53.580;9.758;2023-06-14T01:27:46;5.90;;;3.07;;
12312;SDS011;6220;53.580;9.758;2023-06-14T01:30:13;4.47;;;3.27;;
12312;SDS011;6220;53.580;9.758;2023-06-14T01:32:39;5.57;;;3.17;;
12312;SDS011;6220;53.580;9.758;2023-06-14T01:35:05;4.77;;;3.30;;
12312;SDS011;6220;53.580;9.758;2023-06-14T01:37:31;8.37;;;3.37;;
12312;SDS011;6220;53.580;9.758;2023-06-14T01:39:57;6.33;;;2.93;;
12312;SDS011;6220;53.580;9.758;2023-06-14T01:42:23;7.70;;;3.37;;
12312;SDS011;6220;53.580;9.758;2023-06-14T01:44:50;6.80;;;3.40;;
12312;SDS011;6220;53.580;9.758;2023-06-14T01:47:16;8.13;;;3.20;;
12312;SDS011;6220;53.580;9.758;2023-06-14T01:49:42;7.07;;;2.80;;
12312;SDS011;6220;53.580;9.758;2023-06-14T01:52:07;5.60;;;3.03;;
12312;SDS011;6220;53.580;9.758;2023-06-14T01:54:34;4.63;;;3.10;;
12312;SDS011;6220;53.580;9.758;2023-06-14T01:57:02;4.70;;;2.77;;
12312;SDS011;6220;53.580;9.758;2023-06-14T01:59:28;4.23;;;2.97;;
12312;SDS011;6220;53.580;9.758;2023-06-14T02:01:53;7.10;;;2.70;;
12312;SDS011;6220;53.580;9.758;2023-06-14T02:04:19;4.67;;;2.77;;
12312;SDS011;6220;53.580;9.758;2023-06-14T02:06:44;4.70;;;2.90;;
12312;SDS011;6220;53.580;9.758;2023-06-14T02:09:10;7.03;;;3.10;;
12312;SDS011;6220;53.580;9.758;2023-06-14T02:11:35;3.80;;;2.97;;
12312;SDS011;6220;53.580;9.758;2023-06-14T02:14:00;6.70;;;3.57;;
12312;SDS011;6220;53.580;9.758;2023-06-14T02:16:26;4.47;;;2.63;;
12312;SDS011;6220;53.580;9.758;2023-06-14T02:18:53;4.83;;;3.10;;
12312;SDS011;6220;53.580;9.758;2023-06-14T02:21:18;5.53;;;2.80;;
12312;SDS011;6220;53.580;9.758;2023-06-14T02:23:44;7.40;;;3.67;;
12312;SDS011;6220;53.580;9.758;2023-06-14T02:26:10;5.30;;;3.33;;
12312;SDS011;6220;53.580;9.758;2023-06-14T02:28:35;7.93;;;3.73;;
12312;SDS011;6220;53.580;9.758;2023-06-14T02:31:00;5.57;;;3.20;;
12312;SDS011;6220;53.580;9.758;2023-06-14T02:33:26;5.23;;;3.03;;
12312;SDS011;6220;53.580;9.758;2023-06-14T02:35:51;5.20;;;3.13;;
12312;SDS011;6220;53.580;9.758;2023-06-14T02:38:17;6.30;;;3.17;;
12312;SDS011;6220;53.580;9.758;2023-06-14T02:40:43;4.17;;;3.10;;
12312;SDS011;6220;53.580;9.758;2023-06-14T02:43:08;3.67;;;2.87;;
12312;SDS011;6220;53.580;9.758;2023-06-14T02:45:34;3.97;;;3.43;;
12312;SDS011;6220;53.580;9.758;2023-06-14T02:47:59;7.07;;;3.00;;
12312;SDS011;6220;53.580;9.758;2023-06-14T02:50:24;6.07;;;3.63;;
12312;SDS011;6220;53.580;9.758;2023-06-14T02:52:53;4.83;;;3.43;;
12312;SDS011;6220;53.580;9.758;2023-06-14T02:55:20;4.70;;;3.27;;
12312;SDS011;6220;53.580;9.758;2023-06-14T02:57:46;4.67;;;3.17;;
12312;SDS011;6220;53.580;9.758;2023-06-14T03:00:13;4.63;;;3.10;;
12312;SDS011;6220;53.580;9.758;2023-06-14T03:02:39;4.27;;;2.90;;
12312;SDS011;6220;53.580;9.758;2023-06-14T03:05:04;7.20;;;3.07;;
12312;SDS011;6220;53.580;9.758;2023-06-14T03:07:32;4.37;;;2.90;;
12312;SDS011;6220;53.580;9.758;2023-06-14T03:09:57;5.57;;;3.33;;
12312;SDS011;6220;53.580;9.758;2023-06-14T03:12:23;4.67;;;2.90;;
12312;SDS011;6220;53.580;9.758;2023-06-14T03:14:48;4.47;;;3.13;;
12312;SDS011;6220;53.580;9.758;2023-06-14T03:17:16;7.70;;;3.40;;
12312;SDS011;6220;53.580;9.758;2023-06-14T03:19:42;6.63;;;3.50;;
12312;SDS011;6220;53.580;9.758;2023-06-14T03:22:08;6.60;;;3.40;;
12312;SDS011;6220;53.580;9.758;2023-06-14T03:24:33;6.13;;;3.27;;
12312;SDS011;6220;53.580;9.758;2023-06-14T03:27:01;4.83;;;3.40;;
12312;SDS011;6220;53.580;9.758;2023-06-14T03:29:27;6.83;;;3.47;;
12312;SDS011;6220;53.580;9.758;2023-06-14T03:32:02;6.93;;;3.40;;
12312;SDS011;6220;53.580;9.758;2023-06-14T03:34:28;6.87;;;3.53;;
12312;SDS011;6220;53.580;9.758;2023-06-14T03:36:53;5.40;;;3.10;;
12312;SDS011;6220;53.580;9.758;2023-06-14T03:39:19;3.80;;;2.93;;
12312;SDS011;6220;53.580;9.758;2023-06-14T03:41:45;6.80;;;3.40;;
12312;SDS011;6220;53.580;9.758;2023-06-14T03:44:11;4.07;;;3.00;;
12312;SDS011;6220;53.580;9.758;2023-06-14T03:46:36;4.50;;;3.23;;
12312;SDS011;6220;53.580;9.758;2023-06-14T03:49:01;6.43;;;3.50;;
12312;SDS011;6220;53.580;9.758;2023-06-14T03:51:28;5.07;;;3.23;;
12312;SDS011;6220;53.580;9.758;2023-06-14T03:53:54;9.40;;;3.60;;
12312;SDS011;6220;53.580;9.758;2023-06-14T03:56:20;9.27;;;3.17;;
12312;SDS011;6220;53.580;9.758;2023-06-14T03:58:46;5.63;;;3.40;;
12312;SDS011;6220;53.580;9.758;2023-06-14T04:01:11;4.90;;;3.87;;
12312;SDS011;6220;53.580;9.758;2023-06-14T04:03:37;5.70;;;3.70;;
12312;SDS011;6220;53.580;9.758;2023-06-14T04:06:03;6.13;;;3.63;;
12312;SDS011;6220;53.580;9.758;2023-06-14T04:08:30;4.50;;;3.37;;
12312;SDS011;6220;53.580;9.758;2023-06-14T04:10:56;4.57;;;3.43;;
12312;SDS011;6220;53.580;9.758;2023-06-14T04:13:21;6.27;;;3.60;;
12312;SDS011;6220;53.580;9.758;2023-06-14T04:15:46;6.97;;;3.70;;
12312;SDS011;6220;53.580;9.758;2023-06-14T04:18:12;8.13;;;3.77;;
12312;SDS011;6220;53.580;9.758;2023-06-14T04:20:38;6.47;;;3.80;;
12312;SDS011;6220;53.580;9.758;2023-06-14T04:23:15;5.93;;;3.77;;
12312;SDS011;6220;53.580;9.758;2023-06-14T04:25:42;5.87;;;3.63;;
12312;SDS011;6220;53.580;9.758;2023-06-14T04:28:13;6.53;;;3.57;;
12312;SDS011;6220;53.580;9.758;2023-06-14T04:30:42;7.13;;;3.17;;
12312;SDS011;6220;53.580;9.758;2023-06-14T04:33:08;8.67;;;3.83;;
12312;SDS011;6220;53.580;9.758;2023-06-14T04:35:34;6.43;;;3.37;;
12312;SDS011;6220;53.580;9.758;2023-06-14T04:38:01;6.63;;;3.53;;
12312;SDS011;6220;53.580;9.758;2023-06-14T04:40:29;8.00;;;3.60;;
12312;SDS011;6220;53.580;9.758;2023-06-14T04:42:55;7.30;;;3.87;;
12312;SDS011;6220;53.580;9.758;2023-06-14T04:45:20;7.13;;;3.87;;
12312;SDS011;6220;53.580;9.758;2023-06-14T04:47:47;7.63;;;3.63;;
12312;SDS011;6220;53.580;9.758;2023-06-14T04:50:12;5.60;;;3.63;;
12312;SDS011;6220;53.580;9.758;2023-06-14T04:52:38;5.77;;;3.80;;
12312;SDS011;6220;53.580;9.758;2023-06-14T04:55:03;6.90;;;3.73;;
12312;SDS011;6220;53.580;9.758;2023-06-14T04:57:29;8.00;;;3.50;;
12312;SDS011;6220;53.580;9.758;2023-06-14T04:59:56;6.87;;;3.87;;
12312;SDS011;6220;53.580;9.758;2023-06-14T05:02:22;7.10;;;3.73;;
12312;SDS011;6220;53.580;9.758;2023-06-14T05:04:49;8.60;;;3.80;;
12312;SDS011;6220;53.580;9.758;2023-06-14T05:07:16;5.90;;;4.10;;
12312;SDS011;6220;53.580;9.758;2023-06-14T05:09:41;5.07;;;3.60;;
12312;SDS011;6220;53.580;9.758;2023-06-14T05:12:07;6.43;;;3.70;;
12312;SDS011;6220;53.580;9.758;2023-06-14T05:14:35;6.87;;;3.30;;
12312;SDS011;6220;53.580;9.758;2023-06-14T05:17:01;10.87;;;3.90;;
12312;SDS011;6220;53.580;9.758;2023-06-14T05:19:27;7.00;;;3.83;;
12312;SDS011;6220;53.580;9.758;2023-06-14T05:21:53;7.03;;;4.07;;
12312;SDS011;6220;53.580;9.758;2023-06-14T05:24:18;7.83;;;3.77;;
12312;SDS011;6220;53.580;9.758;2023-06-14T05:26:44;4.43;;;3.50;;
12312;SDS011;6220;53.580;9.758;2023-06-14T05:29:10;5.43;;;3.77;;
12312;SDS011;6220;53.580;9.758;2023-06-14T05:31:35;4.83;;;3.43;;
12312;SDS011;6220;53.580;9.758;2023-06-14T05:34:01;7.87;;;3.93;;
12312;SDS011;6220;53.580;9.758;2023-06-14T05:36:27;6.17;;;3.57;;
12312;SDS011;6220;53.580;9.758;2023-06-14T05:38:52;6.97;;;3.13;;
12312;SDS011;6220;53.580;9.758;2023-06-14T05:41:23;6.63;;;3.67;;
12312;SDS011;6220;53.580;9.758;2023-06-14T05:43:50;6.17;;;3.70;;
12312;SDS011;6220;53.580;9.758;2023-06-14T05:46:15;10.27;;;3.60;;
12312;SDS011;6220;53.580;9.758;2023-06-14T05:48:40;5.30;;;3.20;;
12312;SDS011;6220;53.580;9.758;2023-06-14T05:51:06;6.40;;;3.47;;
12312;SDS011;6220;53.580;9.758;2023-06-14T05:53:33;5.07;;;3.50;;
12312;SDS011;6220;53.580;9.758;2023-06-14T05:55:59;10.13;;;3.73;;
12312;SDS011;6220;53.580;9.758;2023-06-14T05:58:24;8.43;;;3.70;;
12312;SDS011;6220;53.580;9.758;2023-06-14T06:00:50;4.37;;;3.63;;
12312;SDS011;6220;53.580;9.758;2023-06-14T06:03:15;7.47;;;3.47;;
12312;SDS011;6220;53.580;9.758;2023-06-14T06:05:41;5.03;;;3.47;;
12312;SDS011;6220;53.580;9.758;2023-06-14T06:08:06;6.63;;;3.67;;
12312;SDS011;6220;53.580;9.758;2023-06-14T06:10:32;5.53;;;3.80;;
12312;SDS011;6220;53.580;9.758;2023-06-14T06:12:57;7.77;;;3.73;;
12312;SDS011;6220;53.580;9.758;2023-06-14T06:15:22;9.47;;;3.90;;
12312;SDS011;6220;53.580;9.758;2023-06-14T06:17:48;6.57;;;3.60;;
12312;SDS011;6220;53.580;9.758;2023-06-14T06:20:13;8.90;;;4.00;;
12312;SDS011;6220;53.580;9.758;2023-06-14T06:22:38;9.37;;;4.03;;
12312;SDS011;6220;53.580;9.758;2023-06-14T06:25:04;6.47;;;4.17;;
12312;SDS011;6220;53.580;9.758;2023-06-14T06:27:31;7.57;;;3.93;;
12312;SDS011;6220;53.580;9.758;2023-06-14T06:29:56;7.40;;;3.73;;
12312;SDS011;6220;53.580;9.758;2023-06-14T06:32:22;5.77;;;3.33;;
12312;SDS011;6220;53.580;9.758;2023-06-14T06:34:47;8.63;;;3.63;;
12312;SDS011;6220;53.580;9.758;2023-06-14T06:37:13;10.07;;;3.23;;
12312;SDS011;6220;53.580;9.758;2023-06-14T06:39:38;8.07;;;3.57;;
12312;SDS011;6220;53.580;9.758;2023-06-14T06:42:04;5.93;;;3.57;;
12312;SDS011;6220;53.580;9.758;2023-06-14T06:44:30;5.17;;;3.43;;
12312;SDS011;6220;53.580;9.758;2023-06-14T06:46:55;6.33;;;3.57;;
12312;SDS011;6220;53.580;9.758;2023-06-14T06:49:22;9.57;;;3.20;;
12312;SDS011;6220;53.580;9.758;2023-06-14T06:52:04;4.03;;;3.17;;
12312;SDS011;6220;53.580;9.758;2023-06-14T06:54:31;6.20;;;3.30;;
12312;SDS011;6220;53.580;9.758;2023-06-14T06:56:57;11.03;;;3.93;;
12312;SDS011;6220;53.580;9.758;2023-06-14T06:59:23;8.87;;;3.33;;
12312;SDS011;6220;53.580;9.758;2023-06-14T07:01:48;4.63;;;3.30;;
12312;SDS011;6220;53.580;9.758;2023-06-14T07:04:14;7.03;;;3.07;;
12312;SDS011;6220;53.580;9.758;2023-06-14T07:06:39;9.00;;;3.30;;
12312;SDS011;6220;53.580;9.758;2023-06-14T07:09:04;6.00;;;3.40;;
12312;SDS011;6220;53.580;9.758;2023-06-14T07:11:33;8.23;;;3.53;;
12312;SDS011;6220;53.580;9.758;2023-06-14T07:13:58;9.50;;;3.00;;
12312;SDS011;6220;53.580;9.758;2023-06-14T07:16:24;5.20;;;2.90;;
12312;SDS011;6220;53.580;9.758;2023-06-14T07:18:49;4.87;;;3.00;;
12312;SDS011;6220;53.580;9.758;2023-06-14T07:21:14;8.70;;;3.00;;
12312;SDS011;6220;53.580;9.758;2023-06-14T07:23:40;9.40;;;2.93;;
12312;SDS011;6220;53.580;9.758;2023-06-14T07:26:05;7.17;;;3.03;;
12312;SDS011;6220;53.580;9.758;2023-06-14T07:28:31;6.40;;;2.77;;
12312;SDS011;6220;53.580;9.758;2023-06-14T07:30:56;5.87;;;2.43;;
12312;SDS011;6220;53.580;9.758;2023-06-14T07:33:22;5.97;;;2.60;;
12312;SDS011;6220;53.580;9.758;2023-06-14T07:35:47;3.63;;;2.40;;
12312;SDS011;6220;53.580;9.758;2023-06-14T07:38:14;3.23;;;2.27;;
12312;SDS011;6220;53.580;9.758;2023-06-14T07:40:39;3.97;;;2.27;;
12312;SDS011;6220;53.580;9.758;2023-06-14T07:43:04;4.80;;;2.50;;
12312;SDS011;6220;53.580;9.758;2023-06-14T07:45:30;5.53;;;2.57;;
12312;SDS011;6220;53.580;9.758;2023-06-14T07:47:56;3.87;;;2.57;;
12312;SDS011;6220;53.580;9.758;2023-06-14T07:50:21;7.43;;;2.60;;
12312;SDS011;6220;53.580;9.758;2023-06-14T07:52:47;8.77;;;2.87;;
12312;SDS011;6220;53.580;9.758;2023-06-14T07:55:13;4.50;;;2.47;;
12312;SDS011;6220;53.580;9.758;2023-06-14T07:57:40;5.27;;;2.70;;
12312;SDS011;6220;53.580;9.758;2023-06-14T08:00:05;6.57;;;2.80;;
12312;SDS011;6220;53.580;9.758;2023-06-14T08:02:31;4.67;;;2.50;;
12312;SDS011;6220;53.580;9.758;2023-06-14T08:04:57;4.37;;;2.30;;
12312;SDS011;6220;53.580;9.758;2023-06-14T08:07:23;5.17;;;2.57;;
12312;SDS011;6220;53.580;9.758;2023-06-14T08:09:48;5.90;;;2.80;;
12312;SDS011;6220;53.580;9.758;2023-06-14T08:12:14;5.27;;;2.87;;
12312;SDS011;6220;53.580;9.758;2023-06-14T08:14:41;4.40;;;2.50;;
12312;SDS011;6220;53.580;9.758;2023-06-14T08:17:07;4.57;;;2.50;;
12312;SDS011;6220;53.580;9.758;2023-06-14T08:19:33;4.47;;;2.43;;
12312;SDS011;6220;53.580;9.758;2023-06-14T08:21:58;4.90;;;2.57;;
12312;SDS011;6220;53.580;9.758;2023-06-14T08:24:24;5.70;;;2.87;;
12312;SDS011;6220;53.580;9.758;2023-06-14T08:26:51;3.77;;;2.60;;
12312;SDS011;6220;53.580;9.758;2023-06-14T08:29:17;3.80;;;2.60;;
12312;SDS011;6220;53.580;9.758;2023-06-14T08:31:42;5.87;;;2.87;;
12312;SDS011;6220;53.580;9.758;2023-06-14T08:34:08;5.73;;;2.73;;
12312;SDS011;6220;53.580;9.758;2023-06-14T08:36:34;4.40;;;2.80;;
12312;SDS011;6220;53.580;9.758;2023-06-14T08:39:00;3.17;;;2.57;;
12312;SDS011;6220;53.580;9.758;2023-06-14T08:41:25;4.73;;;2.53;;
12312;SDS011;6220;53.580;9.758;2023-06-14T08:43:54;3.87;;;2.43;;
12312;SDS011;6220;53.580;9.758;2023-06-14T08:46:19;6.10;;;2.60;;
12312;SDS011;6220;53.580;9.758;2023-06-14T08:48:54;5.77;;;3.00;;
12312;SDS011;6220;53.580;9.758;2023-06-14T08:51:22;6.23;;;2.63;;
12312;SDS011;6220;53.580;9.758;2023-06-14T08:53:52;5.60;;;2.80;;
12312;SDS011;6220;53.580;9.758;2023-06-14T08:56:22;7.90;;;2.50;;
12312;SDS011;6220;53.580;9.758;2023-06-14T08:58:51;6.30;;;3.00;;
12312;SDS011;6220;53.580;9.758;2023-06-14T09:01:17;6.87;;;3.00;;
12312;SDS011;6220;53.580;9.758;2023-06-14T09:03:44;5.50;;;2.90;;
12312;SDS011;6220;53.580;9.758;2023-06-14T09:06:10;3.47;;;2.57;;
12312;SDS011;6220;53.580;9.758;2023-06-14T09:08:44;6.50;;;3.20;;
12312;SDS011;6220;53.580;9.758;2023-06-14T09:11:15;8.43;;;3.20;;
12312;SDS011;6220;53.580;9.758;2023-06-14T09:13:44;4.90;;;3.00;;
12312;SDS011;6220;53.580;9.758;2023-06-14T09:16:10;9.60;;;3.27;;
12312;SDS011;6220;53.580;9.758;2023-06-14T09:18:37;6.97;;;3.20;;
12312;SDS011;6220;53.580;9.758;2023-06-14T09:21:04;5.57;;;2.80;;
12312;SDS011;6220;53.580;9.758;2023-06-14T09:23:33;7.90;;;2.77;;
12312;SDS011;6220;53.580;9.758;2023-06-14T09:25:59;5.60;;;3.27;;
12312;SDS011;6220;53.580;9.758;2023-06-14T09:28:27;5.70;;;2.70;;
12312;SDS011;6220;53.580;9.758;2023-06-14T09:30:54;5.30;;;2.80;;
12312;SDS011;6220;53.580;9.758;2023-06-14T09:33:19;5.77;;;2.90;;
12312;SDS011;6220;53.580;9.758;2023-06-14T09:35:45;6.57;;;2.67;;
12312;SDS011;6220;53.580;9.758;2023-06-14T09:38:11;3.47;;;2.83;;
12312;SDS011;6220;53.580;9.758;2023-06-14T09:40:37;5.17;;;2.90;;
12312;SDS011;6220;53.580;9.758;2023-06-14T09:43:04;4.60;;;2.47;;
12312;SDS011;6220;53.580;9.758;2023-06-14T09:45:31;5.93;;;2.70;;
12312;SDS011;6220;53.580;9.758;2023-06-14T09:47:58;5.60;;;2.60;;
12312;SDS011;6220;53.580;9.758;2023-06-14T09:50:23;8.80;;;3.23;;
12312;SDS011;6220;53.580;9.758;2023-06-14T09:52:49;7.63;;;3.13;;
12312;SDS011;6220;53.580;9.758;2023-06-14T09:55:17;6.63;;;3.30;;
12312;SDS011;6220;53.580;9.758;2023-06-14T09:57:44;4.83;;;2.93;;
12312;SDS011;6220;53.580;9.758;2023-06-14T10:00:10;7.60;;;2.97;;
12312;SDS011;6220;53.580;9.758;2023-06-14T10:02:38;5.53;;;2.80;;
12312;SDS011;6220;53.580;9.758;2023-06-14T10:07:32;4.90;;;3.03;;
12312;SDS011;6220;53.580;9.758;2023-06-14T10:10:00;6.27;;;3.37;;
12312;SDS011;6220;53.580;9.758;2023-06-14T10:12:26;6.77;;;3.40;;
12312;SDS011;6220;53.580;9.758;2023-06-14T10:14:52;5.27;;;3.10;;
12312;SDS011;6220;53.580;9.758;2023-06-14T10:17:25;6.83;;;3.07;;
12312;SDS011;6220;53.580;9.758;2023-06-14T10:20:10;4.40;;;2.80;;
12312;SDS011;6220;53.580;9.758;2023-06-14T10:22:49;3.37;;;2.93;;
12312;SDS011;6220;53.580;9.758;2023-06-14T10:25:26;13.20;;;3.23;;
12312;SDS011;6220;53.580;9.758;2023-06-14T10:31:26;5.87;;;3.07;;
12312;SDS011;6220;53.580;9.758;2023-06-14T10:33:55;4.80;;;2.83;;
12312;SDS011;6220;53.580;9.758;2023-06-14T10:41:50;6.17;;;2.70;;
12312;SDS011;6220;53.580;9.758;2023-06-14T10:46:46;8.23;;;3.20;;
12312;SDS011;6220;53.580;9.758;2023-06-14T10:49:17;5.77;;;3.20;;
12312;SDS011;6220;53.580;9.758;2023-06-14T10:51:49;10.30;;;3.40;;
12312;SDS011;6220;53.580;9.758;2023-06-14T10:54:16;6.53;;;3.43;;
12312;SDS011;6220;53.580;9.758;2023-06-14T10:56:49;4.00;;;2.97;;
12312;SDS011;6220;53.580;9.758;2023-06-14T10:59:16;5.10;;;3.00;;
12312;SDS011;6220;53.580;9.758;2023-06-14T11:01:56;3.37;;;2.80;;
12312;SDS011;6220;53.580;9.758;2023-06-14T11:04:27;6.47;;;3.07;;
12312;SDS011;6220;53.580;9.758;2023-06-14T11:07:06;3.90;;;2.73;;
12312;SDS011;6220;53.580;9.758;2023-06-14T11:09:43;5.23;;;2.93;;
12312;SDS011;6220;53.580;9.758;2023-06-14T11:12:18;6.80;;;3.00;;
12312;SDS011;6220;53.580;9.758;2023-06-14T11:14:47;8.03;;;3.43;;
12312;SDS011;6220;53.580;9.758;2023-06-14T11:17:13;4.70;;;3.00;;
12312;SDS011;6220;53.580;9.758;2023-06-14T11:19:38;6.93;;;3.60;;
12312;SDS011;6220;53.580;9.758;2023-06-14T11:22:03;4.70;;;3.00;;
12312;SDS011;6220;53.580;9.758;2023-06-14T11:24:32;5.40;;;3.03;;
12312;SDS011;6220;53.580;9.758;2023-06-14T11:26:58;7.20;;;3.30;;
12312;SDS011;6220;53.580;9.758;2023-06-14T11:29:23;7.07;;;3.10;;
12312;SDS011;6220;53.580;9.758;2023-06-14T11:31:48;4.40;;;2.70;;
12312;SDS011;6220;53.580;9.758;2023-06-14T11:34:15;7.20;;;3.27;;
12312;SDS011;6220;53.580;9.758;2023-06-14T11:36:41;5.20;;;2.70;;
12312;SDS011;6220;53.580;9.758;2023-06-14T11:39:07;5.97;;;3.10;;
12312;SDS011;6220;53.580;9.758;2023-06-14T11:41:37;7.23;;;2.60;;
12312;SDS011;6220;53.580;9.758;2023-06-14T11:44:03;6.20;;;3.00;;
12312;SDS011;6220;53.580;9.758;2023-06-14T11:46:28;3.40;;;2.83;;
12312;SDS011;6220;53.580;9.758;2023-06-14T11:48:54;5.33;;;2.60;;
12312;SDS011;6220;53.580;9.758;2023-06-14T11:51:19;7.20;;;3.40;;
12312;SDS011;6220;53.580;9.758;2023-06-14T11:53:45;7.13;;;3.17;;
12312;SDS011;6220;53.580;9.758;2023-06-14T11:56:11;5.97;;;3.30;;
12312;SDS011;6220;53.580;9.758;2023-06-14T11:58:37;5.17;;;3.40;;
12312;SDS011;6220;53.580;9.758;2023-06-14T12:01:05;5.13;;;2.93;;
12312;SDS011;6220;53.580;9.758;2023-06-14T12:03:30;5.23;;;3.10;;
12312;SDS011;6220;53.580;9.758;2023-06-14T12:06:03;5.73;;;3.07;;
12312;SDS011;6220;53.580;9.758;2023-06-14T12:08:33;8.73;;;2.90;;
12312;SDS011;6220;53.580;9.758;2023-06-14T12:11:03;5.50;;;3.23;;
12312;SDS011;6220;53.580;9.758;2023-06-14T12:13:29;4.00;;;3.10;;
12312;SDS011;6220;53.580;9.758;2023-06-14T12:15:58;5.97;;;2.97;;
12312;SDS011;6220;53.580;9.758;2023-06-14T12:18:33;4.30;;;3.20;;
12312;SDS011;6220;53.580;9.758;2023-06-14T12:21:00;3.63;;;2.90;;
12312;SDS011;6220;53.580;9.758;2023-06-14T12:23:41;5.13;;;2.87;;
12312;SDS011;6220;53.580;9.758;2023-06-14T12:26:07;5.80;;;3.00;;
12312;SDS011;6220;53.580;9.758;2023-06-14T12:28:32;6.80;;;3.13;;
12312;SDS011;6220;53.580;9.758;2023-06-14T12:30:58;6.13;;;2.87;;
12312;SDS011;6220;53.580;9.758;2023-06-14T12:33:24;3.57;;;3.10;;
12312;SDS011;6220;53.580;9.758;2023-06-14T12:35:49;8.07;;;3.23;;
12312;SDS011;6220;53.580;9.758;2023-06-14T12:38:15;4.00;;;2.70;;
12312;SDS011;6220;53.580;9.758;2023-06-14T12:40:41;4.40;;;2.90;;
12312;SDS011;6220;53.580;9.758;2023-06-14T12:43:07;9.80;;;3.33;;
12312;SDS011;6220;53.580;9.758;2023-06-14T12:45:33;3.20;;;2.40;;
12312;SDS011;6220;53.580;9.758;2023-06-14T12:47:58;6.07;;;3.13;;
12312;SDS011;6220;53.580;9.758;2023-06-14T12:50:24;6.63;;;2.83;;
12312;SDS011;6220;53.580;9.758;2023-06-14T12:52:49;6.47;;;3.20;;
12312;SDS011;6220;53.580;9.758;2023-06-14T12:55:14;4.10;;;3.20;;
12312;SDS011;6220;53.580;9.758;2023-06-14T12:57:40;4.90;;;2.87;;
12312;SDS011;6220;53.580;9.758;2023-06-14T13:00:06;6.50;;;2.90;;
12312;SDS011;6220;53.580;9.758;2023-06-14T13:02:32;3.13;;;2.70;;
12312;SDS011;6220;53.580;9.758;2023-06-14T13:04:58;3.87;;;2.90;;
12312;SDS011;6220;53.580;9.758;2023-06-14T13:07:24;5.80;;;2.90;;
12312;SDS011;6220;53.580;9.758;2023-06-14T13:09:49;7.03;;;3.10;;
12312;SDS011;6220;53.580;9.758;2023-06-14T13:12:15;7.03;;;3.10;;
12312;SDS011;6220;53.580;9.758;2023-06-14T13:14:41;9.83;;;3.33;;
12312;SDS011;6220;53.580;9.758;2023-06-14T13:17:09;5.70;;;2.73;;
12312;SDS011;6220;53.580;9.758;2023-06-14T13:19:35;4.77;;;2.83;;
12312;SDS011;6220;53.580;9.758;2023-06-14T13:22:00;7.20;;;3.00;;
12312;SDS011;6220;53.580;9.758;2023-06-14T13:24:26;4.67;;;2.77;;
12312;SDS011;6220;53.580;9.758;2023-06-14T13:26:52;8.97;;;3.30;;
12312;SDS011;6220;53.580;9.758;2023-06-14T13:29:17;7.77;;;2.93;;
12312;SDS011;6220;53.580;9.758;2023-06-14T13:31:42;4.50;;;2.90;;
12312;SDS011;6220;53.580;9.758;2023-06-14T13:34:08;6.73;;;3.17;;
12312;SDS011;6220;53.580;9.758;2023-06-14T13:36:33;3.27;;;2.90;;
12312;SDS011;6220;53.580;9.758;2023-06-14T13:38:58;9.30;;;3.30;;
12312;SDS011;6220;53.580;9.758;2023-06-14T13:41:25;6.17;;;2.90;;
12312;SDS011;6220;53.580;9.758;2023-06-14T13:43:56;4.17;;;2.93;;
12312;SDS011;6220;53.580;9.758;2023-06-14T13:46:22;5.73;;;3.20;;
12312;SDS011;6220;53.580;9.758;2023-06-14T13:48:47;9.60;;;3.50;;
12312;SDS011;6220;53.580;9.758;2023-06-14T13:51:12;4.23;;;2.90;;
12312;SDS011;6220;53.580;9.758;2023-06-14T13:53:38;6.03;;;2.97;;
12312;SDS011;6220;53.580;9.758;2023-06-14T13:56:04;5.57;;;2.87;;
12312;SDS011;6220;53.580;9.758;2023-06-14T13:58:29;5.57;;;3.30;;
12312;SDS011;6220;53.580;9.758;2023-06-14T14:00:55;5.23;;;3.20;;
12312;SDS011;6220;53.580;9.758;2023-06-14T14:03:20;8.03;;;3.20;;
12312;SDS011;6220;53.580;9.758;2023-06-14T14:05:46;4.13;;;2.93;;
12312;SDS011;6220;53.580;9.758;2023-06-14T14:08:11;5.07;;;3.03;;
12312;SDS011;6220;53.580;9.758;2023-06-14T14:10:37;6.37;;;3.10;;
12312;SDS011;6220;53.580;9.758;2023-06-14T14:13:02;3.40;;;2.73;;
12312;SDS011;6220;53.580;9.758;2023-06-14T14:15:27;9.00;;;3.03;;
12312;SDS011;6220;53.580;9.758;2023-06-14T14:17:53;3.93;;;2.57;;
12312;SDS011;6220;53.580;9.758;2023-06-14T14:20:19;5.97;;;2.97;;
12312;SDS011;6220;53.580;9.758;2023-06-14T14:22:45;4.37;;;3.10;;
12312;SDS011;6220;53.580;9.758;2023-06-14T14:25:10;4.90;;;3.23;;
12312;SDS011;6220;53.580;9.758;2023-06-14T14:27:36;6.90;;;3.27;;
12312;SDS011;6220;53.580;9.758;2023-06-14T14:30:02;10.13;;;3.20;;
12312;SDS011;6220;53.580;9.758;2023-06-14T14:32:28;6.97;;;2.73;;
12312;SDS011;6220;53.580;9.758;2023-06-14T14:34:53;8.63;;;3.37;;
12312;SDS011;6220;53.580;9.758;2023-06-14T14:37:19;4.53;;;2.97;;
12312;SDS011;6220;53.580;9.758;2023-06-14T14:39:44;5.93;;;2.77;;
12312;SDS011;6220;53.580;9.758;2023-06-14T14:42:10;4.60;;;2.90;;
12312;SDS011;6220;53.580;9.758;2023-06-14T14:44:37;4.23;;;2.70;;
12312;SDS011;6220;53.580;9.758;2023-06-14T14:47:03;3.60;;;2.70;;
12312;SDS011;6220;53.580;9.758;2023-06-14T14:49:28;4.87;;;2.70;;
12312;SDS011;6220;53.580;9.758;2023-06-14T14:51:54;6.23;;;3.20;;
12312;SDS011;6220;53.580;9.758;2023-06-14T14:54:21;11.90;;;3.33;;
12312;SDS011;6220;53.580;9.758;2023-06-14T14:56:46;3.17;;;2.63;;
12312;SDS011;6220;53.580;9.758;2023-06-14T14:59:12;5.07;;;3.00;;
12312;SDS011;6220;53.580;9.758;2023-06-14T15:01:37;7.80;;;3.07;;
12312;SDS011;6220;53.580;9.758;2023-06-14T15:04:03;5.77;;;2.80;;
12312;SDS011;6220;53.580;9.758;2023-06-14T15:06:28;3.90;;;2.87;;
12312;SDS011;6220;53.580;9.758;2023-06-14T15:08:53;8.07;;;2.80;;
12312;SDS011;6220;53.580;9.758;2023-06-14T15:11:19;7.57;;;3.30;;
12312;SDS011;6220;53.580;9.758;2023-06-14T15:13:44;9.57;;;3.00;;
12312;SDS011;6220;53.580;9.758;2023-06-14T15:16:10;5.17;;;2.77;;